^^
Grace C. Lehan Memorial Weather Station Historical Data
Daily Summary for August 14, 2021 Units:  Metric    English   Both
Daily Weekly Monthly Yearly
  High: Low: Average:
Temperature: 25.4 °C 15.7 °C 20.9 °C
Dew Point: 17.8 °C 13.8 °C 15.5 °C
Humidity: 90.3% 54.6% 72%
Wind Speed: 3.2km/h 0km/h 0.2km/h
Wind Gust: 9.7km/h - -
Wind- - SSE
Pressure: 1018.5 hPa 1015.1 hPa -
Precipitation: 0 mm    
 
 
Tabular Data for August 14, 2021
Time Temperature Dew Point Pressure Wind Wind Speed Wind Gust Humidity Rainfall Rate (Hourly) solar
00:00 19.2 °C 15.7 °C 1015.1 hPa Calm     80% 0 mm 0 W/m2
00:09 19.2 °C 15.4 °C 1015.1 hPa Calm     79% 0 mm 0 W/m2
00:14 19.1 °C 15.5 °C 1015.1 hPa Calm     79.5% 0 mm 0 W/m2
00:19 19.1 °C 15.6 °C 1015.5 hPa Calm     80% 0 mm 0 W/m2
00:24 19.1 °C 15.5 °C 1015.5 hPa Calm     80% 0 mm 0 W/m2
00:29 19 °C 15.4 °C 1015.5 hPa Calm     80% 0 mm 0 W/m2
00:34 18.9 °C 15.4 °C 1015.8 hPa Calm     80% 0 mm 0 W/m2
00:39 18.9 °C 15.4 °C 1015.8 hPa Calm     80% 0 mm 0 W/m2
00:44 18.9 °C 15.2 °C 1015.8 hPa Calm     79% 0 mm 0 W/m2
00:49 18.9 °C 15.1 °C 1015.8 hPa Calm     78.9% 0 mm 0 W/m2
00:53 18.8 °C 14.9 °C 1015.8 hPa Calm     78% 0 mm 0 W/m2
00:59 18.8 °C 14.9 °C 1016.1 hPa Calm     78% 0 mm 0 W/m2
01:04 18.8 °C 15.1 °C 1016.1 hPa Calm     78.9% 0 mm 0 W/m2
01:09 18.8 °C 15.2 °C 1016.1 hPa Calm     79.5% 0 mm 0 W/m2
01:14 18.8 °C 15.2 °C 1016.1 hPa Calm     80% 0 mm 0 W/m2
01:19 18.7 °C 14.9 °C 1016.1 hPa Calm     78.9% 0 mm 0 W/m2
01:24 18.5 °C 14.5 °C 1016.1 hPa Calm     77.4% 0 mm 0 W/m2
01:29 18.4 °C 14.4 °C 1016.5 hPa ENE 0.2 km/h 3.2 km/h 77.6% 0 mm 0 W/m2
01:34 18.4 °C 14.3 °C 1016.5 hPa ENE 0.3 km/h 4.8 km/h 77% 0 mm 0 W/m2
01:39 18.4 °C 14.4 °C 1016.5 hPa WNW 1.4 km/h 9.7 km/h 77.7% 0 mm 0 W/m2
01:44 18.3 °C 14.6 °C 1016.5 hPa West 1.3 km/h 9.7 km/h 78.6% 0 mm 0 W/m2
01:49 18.3 °C 14.6 °C 1016.5 hPa West 1.4 km/h 9.7 km/h 78.7% 0 mm 0 W/m2
01:54 18.2 °C 14.4 °C 1016.5 hPa West 0.8 km/h 9.7 km/h 78.4% 0 mm 0 W/m2
01:59 18.2 °C 14.4 °C 1016.5 hPa Calm   9.7 km/h 78.4% 0 mm 0 W/m2
02:04 18.2 °C 14.4 °C 1016.5 hPa Calm   9.7 km/h 79% 0 mm 0 W/m2
02:09 18.1 °C 14.4 °C 1016.8 hPa Calm     79% 0 mm 0 W/m2
02:14 18.1 °C 14.4 °C 1016.8 hPa Calm     79% 0 mm 0 W/m2
02:19 18.1 °C 14.4 °C 1016.8 hPa Calm     79.4% 0 mm 0 W/m2
02:24 18 °C 14.3 °C 1016.8 hPa Calm     79% 0 mm 0 W/m2
02:29 17.9 °C 14.3 °C 1016.8 hPa Calm     79.1% 0 mm 0 W/m2
02:34 17.9 °C 14.4 °C 1016.5 hPa Calm     80% 0 mm 0 W/m2
02:39 17.9 °C 14.3 °C 1016.8 hPa Calm     79.2% 0 mm 0 W/m2
02:44 17.9 °C 14.2 °C 1017.2 hPa Calm     79% 0 mm 0 W/m2
02:49 17.9 °C 14.3 °C 1017.2 hPa Calm     79.4% 0 mm 0 W/m2
02:54 17.9 °C 14.3 °C 1017.2 hPa Calm     79% 0 mm 0 W/m2
02:59 18 °C 14.3 °C 1017.2 hPa Calm     79% 0 mm 0 W/m2
03:04 18.1 °C 14.4 °C 1016.8 hPa Calm     79% 0 mm 0 W/m2
03:09 18.1 °C 14.4 °C 1016.8 hPa Calm     79% 0 mm 0 W/m2
03:14 18.1 °C 14.4 °C 1016.8 hPa Calm     79% 0 mm 0 W/m2
03:19 18.1 °C 14.4 °C 1017.2 hPa Calm     79% 0 mm 0 W/m2
03:24 18.1 °C 14.4 °C 1016.8 hPa Calm     79% 0 mm 0 W/m2
03:29 18.1 °C 14.3 °C 1016.8 hPa Calm     79% 0 mm 0 W/m2
03:34 18 °C 14.3 °C 1016.8 hPa Calm     79% 0 mm 0 W/m2
03:39 17.9 °C 14.3 °C 1016.8 hPa Calm     79.3% 0 mm 0 W/m2
03:44 17.9 °C 14.4 °C 1016.8 hPa Calm     80% 0 mm 0 W/m2
03:49 17.9 °C 14.5 °C 1016.8 hPa Calm     80.6% 0 mm 0 W/m2
03:54 17.8 °C 14.5 °C 1016.8 hPa Calm     81% 0 mm 0 W/m2
03:59 17.8 °C 14.5 °C 1016.8 hPa Calm     81% 0 mm 0 W/m2
04:00 17.8 °C 14.5 °C 1016.8 hPa Calm     81% 0 mm 0 W/m2
04:09 17.7 °C 14.4 °C 1016.8 hPa Calm     81% 0 mm 0 W/m2
04:14 17.6 °C 14.6 °C 1016.8 hPa Calm     82% 0 mm 0 W/m2
04:19 17.6 °C 14.4 °C 1016.8 hPa Calm     82% 0 mm 0 W/m2
04:24 17.5 °C 14.4 °C 1016.5 hPa Calm     82.1% 0 mm 0 W/m2
04:29 17.4 °C 14.6 °C 1016.5 hPa Calm     83% 0 mm 0 W/m2
04:34 17.4 °C 14.5 °C 1016.5 hPa Calm     83% 0 mm 0 W/m2
04:39 17.3 °C 14.4 °C 1016.5 hPa Calm     83% 0 mm 0 W/m2
04:44 17.2 °C 14.3 °C 1016.1 hPa Calm     83% 0 mm 0 W/m2
04:49 17.2 °C 14.3 °C 1016.1 hPa Calm     83% 0 mm 0 W/m2
04:54 17.1 °C 14.3 °C 1016.1 hPa Calm     83.8% 0 mm 0 W/m2
04:59 17 °C 14.3 °C 1016.5 hPa Calm     84% 0 mm 0 W/m2
05:04 16.9 °C 14.2 °C 1016.5 hPa Calm     84% 0 mm 0 W/m2
05:09 16.8 °C 14.3 °C 1016.5 hPa Calm     84.9% 0 mm 0 W/m2
05:14 16.8 °C 14.3 °C 1016.5 hPa Calm     85% 0 mm 0 W/m2
05:19 16.7 °C 14.2 °C 1016.5 hPa Calm     85% 0 mm 0 W/m2
05:24 16.6 °C 14.3 °C 1016.5 hPa Calm     86% 0 mm 0 W/m2
05:29 16.6 °C 14.2 °C 1016.5 hPa Calm     86% 0 mm 0 W/m2
05:34 16.4 °C 14.1 °C 1016.8 hPa Calm     86% 0 mm 0 W/m2
05:39 16.4 °C 14.2 °C 1017.2 hPa Calm     86.7% 0 mm 0 W/m2
05:44 16.3 °C 14.2 °C 1017.5 hPa Calm     87% 0 mm 0 W/m2
05:49 16.2 °C 14.1 °C 1017.5 hPa Calm     87.4% 0 mm 0 W/m2
05:54 16.1 °C 13.9 °C 1017.5 hPa Calm     87% 0 mm 0 W/m2
05:59 16.1 °C 13.9 °C 1017.5 hPa Calm     87% 0 mm 0 W/m2
06:04 15.9 °C 13.9 °C 1017.5 hPa Calm     87.9% 0 mm 0 W/m2
06:09 15.9 °C 13.9 °C 1017.8 hPa Calm     88% 0 mm 0 W/m2
06:14 15.9 °C 13.9 °C 1017.8 hPa Calm     88% 0 mm 0 W/m2
06:19 15.8 °C 13.8 °C 1017.8 hPa Calm     88% 0 mm 0 W/m2
06:24 15.8 °C 13.9 °C 1017.8 hPa Calm     88.6% 0 mm 7 W/m2
06:29 15.8 °C 13.9 °C 1017.8 hPa Calm     89% 0 mm 11 W/m2
06:34 15.7 °C 13.9 °C 1017.8 hPa Calm     89% 0 mm 11 W/m2
06:39 15.7 °C 13.9 °C 1017.5 hPa Calm     89% 0 mm 14 W/m2
06:44 15.7 °C 14 °C 1017.2 hPa Calm     89.3% 0 mm 18 W/m2
06:49 15.8 °C 14.1 °C 1016.8 hPa Calm     89.7% 0 mm 23 W/m2
06:54 15.8 °C 14.2 °C 1016.8 hPa Calm     90% 0 mm 23 W/m2
06:59 15.8 °C 14.2 °C 1016.8 hPa Calm     90% 0 mm 18 W/m2
07:04 15.9 °C 14.2 °C 1017.2 hPa Calm     90% 0 mm 16 W/m2
07:09 15.9 °C 14.3 °C 1017.2 hPa Calm     90% 0 mm 18 W/m2
07:14 15.9 °C 14.3 °C 1016.8 hPa Calm     90% 0 mm 19 W/m2
07:19 15.9 °C 14.3 °C 1016.8 hPa Calm     90% 0 mm 21 W/m2
07:24 16 °C 14.4 °C 1017.2 hPa Calm     90% 0 mm 26 W/m2
07:29 16.1 °C 14.4 °C 1017.5 hPa West 0.6 km/h 6.4 km/h 90% 0 mm 28 W/m2
07:34 16.2 °C 14.5 °C 1017.8 hPa Calm   6.4 km/h 90% 0 mm 30 W/m2
07:39 16.2 °C 14.6 °C 1017.8 hPa West 0.8 km/h 6.4 km/h 90.3% 0 mm 33 W/m2
07:44 16.2 °C 14.6 °C 1017.8 hPa West 0.3 km/h 6.4 km/h 89.8% 0 mm 35 W/m2
07:49 16.3 °C 14.5 °C 1018.2 hPa West 0.2 km/h 6.4 km/h 89% 0 mm 39 W/m2
07:54 16.4 °C 14.6 °C 1018.2 hPa West 0.2 km/h 6.4 km/h 89% 0 mm 42 W/m2
07:59 16.6 °C 14.7 °C 1018.5 hPa Calm   6.4 km/h 88.8% 0 mm 46 W/m2
08:04 16.8 °C 14.8 °C 1018.2 hPa Calm     88% 0 mm 46 W/m2
08:09 16.9 °C 14.8 °C 1018.2 hPa Calm     87.5% 0 mm 51 W/m2
08:14 17.1 °C 14.8 °C 1018.2 hPa Calm     86.4% 0 mm 58 W/m2
08:19 17.3 °C 14.9 °C 1018.2 hPa Calm     85.9% 0 mm 63 W/m2
08:24 17.6 °C 14.8 °C 1018.2 hPa Calm     84.2% 0 mm 74 W/m2
08:29 17.8 °C 15 °C 1018.2 hPa West 0.2 km/h 3.2 km/h 83.6% 0 mm 88 W/m2
08:34 18 °C 14.9 °C 1018.2 hPa Calm   3.2 km/h 82.1% 0 mm 225 W/m2
08:39 18.3 °C 15.2 °C 1018.5 hPa Calm   1.6 km/h 82% 0 mm 257 W/m2
08:44 18.5 °C 15.1 °C 1018.5 hPa Calm   1.6 km/h 80.4% 0 mm 241 W/m2
08:49 18.7 °C 15.1 °C 1018.5 hPa Calm   1.6 km/h 79% 0 mm 230 W/m2
08:54 19 °C 15.2 °C 1018.2 hPa Calm   1.6 km/h 78.7% 0 mm 230 W/m2
08:59 19.3 °C 15.3 °C 1018.2 hPa Calm   1.6 km/h 77.8% 0 mm 223 W/m2
09:04 19.5 °C 15.3 °C 1018.2 hPa NW 0.3 km/h 3.2 km/h 76.8% 0 mm 373 W/m2
09:09 19.8 °C 15.4 °C 1018.5 hPa NNW 0.2 km/h 3.2 km/h 75.7% 0 mm 383 W/m2
09:14 20.1 °C 15.6 °C 1018.5 hPa Calm   3.2 km/h 75.3% 0 mm 192 W/m2
09:19 20.3 °C 15.6 °C 1018.2 hPa NNE 0.8 km/h 4.8 km/h 74.3% 0 mm 211 W/m2
09:24 20.4 °C 15.6 °C 1018.2 hPa NNE 0.3 km/h 6.4 km/h 74% 0 mm 468 W/m2
09:29 20.7 °C 15.6 °C 1018.2 hPa Calm   6.4 km/h 72.4% 0 mm 482 W/m2
09:34 21.1 °C 16 °C 1018.2 hPa Calm   6.4 km/h 72.7% 0 mm 482 W/m2
09:39 21.3 °C 15.9 °C 1018.5 hPa Calm     71.4% 0 mm 336 W/m2
09:44 21.3 °C 15.6 °C 1018.2 hPa ENE 2.4 km/h 8 km/h 69.8% 0 mm 336 W/m2
09:49 21.3 °C 15.3 °C 1018.2 hPa ENE 0.5 km/h 8 km/h 68.7% 0 mm 306 W/m2
09:54 21.2 °C 15.6 °C 1018.2 hPa East 1.9 km/h 8 km/h 70.4% 0 mm 443 W/m2
09:59 21.1 °C 15.2 °C 1018.2 hPa East 1.3 km/h 8 km/h 69.3% 0 mm 367 W/m2
10:04 21.1 °C 15.7 °C 1018.5 hPa East 0.2 km/h 8 km/h 71.2% 0 mm 503 W/m2
10:09 21.4 °C 16.1 °C 1018.5 hPa Calm   3.2 km/h 71.8% 0 mm 519 W/m2
10:14 21.6 °C 15.8 °C 1018.5 hPa East 0.8 km/h 6.4 km/h 69.6% 0 mm 461 W/m2
10:19 21.6 °C 15.8 °C 1018.5 hPa Calm   6.4 km/h 69.3% 0 mm 381 W/m2
10:24 21.8 °C 16.1 °C 1018.5 hPa Calm   6.4 km/h 70% 0 mm 605 W/m2
10:29 22.1 °C 16.4 °C 1018.5 hPa NE 0.5 km/h 6.4 km/h 70.3% 0 mm 619 W/m2
10:34 22.5 °C 16.6 °C 1018.2 hPa NE 0.2 km/h 6.4 km/h 69.1% 0 mm 568 W/m2
10:39 22.8 °C 16.7 °C 1018.2 hPa Calm   3.2 km/h 68.2% 0 mm 552 W/m2
10:44 23.1 °C 16.2 °C 1018.2 hPa Calm   3.2 km/h 65.1% 0 mm 578 W/m2
10:49 23.4 °C 16.2 °C 1018.2 hPa Calm   3.2 km/h 64.1% 0 mm 608 W/m2
10:54 23.5 °C 15.9 °C 1018.2 hPa Calm   3.2 km/h 62.5% 0 mm 533 W/m2
10:59 23.6 °C 16.1 °C 1018.2 hPa Calm   3.2 km/h 62.8% 0 mm 438 W/m2
11:04 23.6 °C 16.5 °C 1018.2 hPa Calm   3.2 km/h 64.5% 0 mm 469 W/m2
11:09 23.7 °C 16.6 °C 1018.2 hPa Calm     64.5% 0 mm 640 W/m2
11:14 23.7 °C 16.1 °C 1018.2 hPa NE 0.3 km/h 3.2 km/h 62.2% 0 mm 612 W/m2
11:19 23.8 °C 16.5 °C 1018.2 hPa NE 0.2 km/h 3.2 km/h 63.6% 0 mm 573 W/m2
11:24 24 °C 16.3 °C 1017.8 hPa Calm   3.2 km/h 62.3% 0 mm 601 W/m2
11:29 24.2 °C 15.8 °C 1017.8 hPa Calm   3.2 km/h 59.6% 0 mm 612 W/m2
11:34 24.2 °C 15.7 °C 1017.8 hPa NE 0.2 km/h 3.2 km/h 58.7% 0 mm 622 W/m2
11:39 24.4 °C 15.7 °C 1017.8 hPa Calm   3.2 km/h 58.4% 0 mm 587 W/m2
11:44 24.4 °C 15.9 °C 1017.5 hPa Calm   3.2 km/h 59% 0 mm 272 W/m2
11:49 24.5 °C 15.9 °C 1017.5 hPa Calm   3.2 km/h 58.7% 0 mm 202 W/m2
11:54 24.5 °C 16.1 °C 1017.5 hPa Calm   3.2 km/h 59.6% 0 mm 192 W/m2
11:59 24.6 °C 16.2 °C 1017.5 hPa NE 0.2 km/h 3.2 km/h 59.7% 0 mm 206 W/m2
12:00 24.6 °C 15.8 °C 1017.5 hPa NE 3.2 km/h 3.2 km/h 58% 0 mm 206 W/m2
12:09 24.6 °C 16.4 °C 1017.5 hPa NE 0.3 km/h 3.2 km/h 60.5% 0 mm 204 W/m2
12:14 24.8 °C 16.9 °C 1017.2 hPa Calm   3.2 km/h 61.8% 0 mm 204 W/m2
12:19 24.8 °C 16.4 °C 1017.5 hPa NE 0.5 km/h 4.8 km/h 59.5% 0 mm 211 W/m2
12:24 24.8 °C 15.9 °C 1017.2 hPa Calm   4.8 km/h 57.8% 0 mm 214 W/m2
12:29 24.7 °C 15.9 °C 1017.5 hPa ESE 0.3 km/h 8 km/h 58.1% 0 mm 211 W/m2
12:34 24.6 °C 15.1 °C 1017.2 hPa ESE 0.3 km/h 8 km/h 55.6% 0 mm 415 W/m2
12:39 24.6 °C 14.9 °C 1017.2 hPa ESE 0.2 km/h 4.8 km/h 55.1% 0 mm 455 W/m2
12:44 24.6 °C 15.2 °C 1017.2 hPa ESE 0.2 km/h 4.8 km/h 55.6% 0 mm 265 W/m2
12:49 24.8 °C 15.2 °C 1017.2 hPa Calm   4.8 km/h 55.2% 0 mm 174 W/m2
12:54 24.8 °C 15.1 °C 1017.2 hPa ESE 0.2 km/h 4.8 km/h 54.6% 0 mm 185 W/m2
12:59 24.7 °C 15.5 °C 1017.2 hPa ESE 0.2 km/h 4.8 km/h 56.4% 0 mm 225 W/m2
13:04 24.8 °C 15.6 °C 1017.2 hPa SE 0.3 km/h 4.8 km/h 56.5% 0 mm 225 W/m2
13:09 24.9 °C 15.8 °C 1016.8 hPa SE 0.5 km/h 3.2 km/h 57.1% 0 mm 200 W/m2
13:14 25 °C 15.8 °C 1016.8 hPa Calm   3.2 km/h 56.9% 0 mm 200 W/m2
13:19 25.1 °C 16.2 °C 1016.8 hPa Calm   3.2 km/h 57.9% 0 mm 197 W/m2
13:24 25.1 °C 15.9 °C 1016.8 hPa Calm   3.2 km/h 56.5% 0 mm 185 W/m2
13:29 25.1 °C 16 °C 1016.8 hPa SSW 0.3 km/h 6.4 km/h 57% 0 mm 223 W/m2
13:34 25.1 °C 15.9 °C 1016.8 hPa SW 0.2 km/h 6.4 km/h 56.5% 0 mm 253 W/m2
13:39 25.1 °C 15.9 °C 1016.8 hPa Calm   3.2 km/h 57% 0 mm 322 W/m2
13:44 25.1 °C 16.5 °C 1016.8 hPa Calm   3.2 km/h 59% 0 mm 318 W/m2
13:49 25.2 °C 16.6 °C 1016.8 hPa Calm   3.2 km/h 58.8% 0 mm 294 W/m2
13:54 25.3 °C 16.7 °C 1016.8 hPa SSW 0.2 km/h 3.2 km/h 59.2% 0 mm 241 W/m2
13:59 25.3 °C 16.2 °C 1016.5 hPa SSW 0.5 km/h 3.2 km/h 57.2% 0 mm 230 W/m2
14:04 25.2 °C 16 °C 1016.5 hPa Calm   3.2 km/h 56.7% 0 mm 204 W/m2
14:09 25.1 °C 16.2 °C 1016.5 hPa Calm     57.8% 0 mm 169 W/m2
14:14 25.1 °C 16.8 °C 1016.5 hPa Calm   1.6 km/h 60.1% 0 mm 216 W/m2
14:19 25.1 °C 17 °C 1016.5 hPa Calm   1.6 km/h 61% 0 mm 225 W/m2
14:24 25.1 °C 17.1 °C 1016.5 hPa SSW 0.2 km/h 3.2 km/h 61.3% 0 mm 202 W/m2
14:29 25.2 °C 17.2 °C 1016.1 hPa Calm   3.2 km/h 61.3% 0 mm 179 W/m2
14:34 25.2 °C 17.1 °C 1016.1 hPa Calm   3.2 km/h 60.6% 0 mm 206 W/m2
14:39 25.2 °C 16.9 °C 1016.1 hPa Calm     60.2% 0 mm 204 W/m2
14:44 25.3 °C 17.1 °C 1016.1 hPa SSW 0.3 km/h 4.8 km/h 60.6% 0 mm 195 W/m2
14:49 25.3 °C 17.3 °C 1016.1 hPa Calm   4.8 km/h 61.3% 0 mm 279 W/m2
14:54 25.3 °C 17.2 °C 1016.1 hPa SW 0.2 km/h 4.8 km/h 60.6% 0 mm 206 W/m2
14:59 25.4 °C 17.1 °C 1016.1 hPa Calm   4.8 km/h 60.1% 0 mm 153 W/m2
15:04 25.4 °C 17.3 °C 1016.1 hPa Calm   4.8 km/h 60.8% 0 mm 162 W/m2
15:09 25.4 °C 17.8 °C 1016.1 hPa Calm   1.6 km/h 62.8% 0 mm 178 W/m2
15:14 25.4 °C 17.7 °C 1015.8 hPa Calm   1.6 km/h 62.4% 0 mm 158 W/m2
15:19 25.4 °C 17.4 °C 1015.8 hPa Calm   1.6 km/h 61.3% 0 mm 178 W/m2
15:24 25.4 °C 17.7 °C 1015.8 hPa Calm   1.6 km/h 62.5% 0 mm 190 W/m2
15:29 25.4 °C 17.7 °C 1015.8 hPa Calm   1.6 km/h 62.3% 0 mm 183 W/m2
15:34 25.4 °C 17.7 °C 1015.8 hPa SW 0.2 km/h 1.6 km/h 62.3% 0 mm 181 W/m2
15:39 25.4 °C 17.6 °C 1015.8 hPa SW 0.2 km/h 3.2 km/h 62% 0 mm 176 W/m2
15:44 25.4 °C 17.4 °C 1015.8 hPa SW 0.2 km/h 3.2 km/h 61.5% 0 mm 171 W/m2
15:49 25.3 °C 17.4 °C 1015.8 hPa SW 0.2 km/h 3.2 km/h 61.4% 0 mm 172 W/m2
15:54 25.3 °C 17.5 °C 1015.8 hPa SW 0.5 km/h 8 km/h 61.8% 0 mm 149 W/m2
15:59 25.3 °C 17.3 °C 1015.8 hPa SW 0.2 km/h 8 km/h 61.1% 0 mm 135 W/m2
16:00 25.3 °C 17.3 °C 1015.8 hPa South 3.2 km/h 8 km/h 61% 0 mm 134 W/m2
16:09 25.2 °C 16.9 °C 1015.8 hPa Calm   1.6 km/h 59.8% 0 mm 179 W/m2
16:14 25.2 °C 16.6 °C 1015.8 hPa Calm   1.6 km/h 58.6% 0 mm 179 W/m2
16:19 25.2 °C 16.6 °C 1015.8 hPa Calm   1.6 km/h 59% 0 mm 156 W/m2
16:24 25.2 °C 16.4 °C 1015.8 hPa Calm   1.6 km/h 58.5% 0 mm 139 W/m2
16:29 25.1 °C 16.4 °C 1015.8 hPa Calm   1.6 km/h 58.5% 0 mm 123 W/m2
16:34 25.1 °C 16.3 °C 1015.8 hPa Calm   1.6 km/h 58.2% 0 mm 113 W/m2
16:39 24.9 °C 16.2 °C 1015.8 hPa Calm   1.6 km/h 58.3% 0 mm 127 W/m2
16:44 24.9 °C 16 °C 1015.8 hPa Calm   1.6 km/h 57.7% 0 mm 118 W/m2
16:49 24.8 °C 15.8 °C 1015.8 hPa Calm   1.6 km/h 57.4% 0 mm 100 W/m2
16:54 24.8 °C 16.1 °C 1015.8 hPa South 0.2 km/h 3.2 km/h 58.4% 0 mm 77 W/m2
16:59 24.7 °C 16 °C 1015.8 hPa South 0.2 km/h 3.2 km/h 58.6% 0 mm 70 W/m2
17:04 24.6 °C 16.3 °C 1015.8 hPa Calm   3.2 km/h 59.9% 0 mm 77 W/m2
17:09 24.4 °C 16.4 °C 1015.8 hPa Calm   1.6 km/h 60.8% 0 mm 93 W/m2
17:14 24.3 °C 16.2 °C 1015.8 hPa South 0.2 km/h 3.2 km/h 60.5% 0 mm 90 W/m2
17:19 24.2 °C 16.2 °C 1015.5 hPa Calm   3.2 km/h 60.9% 0 mm 77 W/m2
17:24 24.1 °C 16.2 °C 1015.8 hPa South 0.2 km/h 4.8 km/h 61.1% 0 mm 83 W/m2
17:29 24 °C 16.1 °C 1015.8 hPa Calm   4.8 km/h 61% 0 mm 83 W/m2
17:34 23.9 °C 16.3 °C 1015.5 hPa Calm   4.8 km/h 62% 0 mm 76 W/m2
17:39 23.9 °C 16.2 °C 1015.5 hPa Calm     62% 0 mm 74 W/m2
17:44 23.9 °C 16.4 °C 1015.5 hPa Calm   1.6 km/h 62.6% 0 mm 62 W/m2
17:49 23.9 °C 16.4 °C 1015.5 hPa Calm   1.6 km/h 63% 0 mm 58 W/m2
17:54 23.9 °C 16.3 °C 1015.5 hPa South 0.2 km/h 3.2 km/h 62.6% 0 mm 46 W/m2
17:59 23.8 °C 16.5 °C 1015.5 hPa Calm   3.2 km/h 63.6% 0 mm 33 W/m2
18:04 23.7 °C 16.6 °C 1015.5 hPa Calm   3.2 km/h 64.3% 0 mm 26 W/m2
18:09 23.6 °C 16.6 °C 1015.5 hPa Calm     65% 0 mm 23 W/m2
18:14 23.5 °C 16.8 °C 1015.5 hPa Calm   1.6 km/h 65.9% 0 mm 21 W/m2
18:19 23.4 °C 16.9 °C 1015.5 hPa Calm   1.6 km/h 66.9% 0 mm 21 W/m2
18:24 23.3 °C 17.1 °C 1015.5 hPa Calm   1.6 km/h 67.8% 0 mm 21 W/m2
18:29 23.2 °C 17.1 °C 1015.5 hPa Calm   1.6 km/h 68.1% 0 mm 21 W/m2
18:34 23.2 °C 17.2 °C 1015.5 hPa SSW 0.8 km/h 3.2 km/h 69% 0 mm 19 W/m2
18:39 23.1 °C 17.1 °C 1015.8 hPa Calm   3.2 km/h 69% 0 mm 16 W/m2
18:44 23 °C 17.1 °C 1015.8 hPa Calm   3.2 km/h 69.4% 0 mm 12 W/m2
18:49 22.9 °C 17.2 °C 1015.5 hPa Calm   3.2 km/h 70% 0 mm 9 W/m2
18:54 22.9 °C 17.2 °C 1015.5 hPa Calm   3.2 km/h 70.5% 0 mm 7 W/m2
18:59 22.8 °C 17.3 °C 1015.5 hPa SSW 0.8 km/h 4.8 km/h 71% 0 mm 0 W/m2
19:03 22.7 °C 17.2 °C 1015.5 hPa Calm   4.8 km/h 71% 0 mm 0 W/m2
Hartford County Weather
Compliments of Weather Underground - 4 mb